createdAt,value
2023-02-17T00:18:13.238Z,29.23
2023-02-17T00:23:51.869Z,32.27
2023-02-17T00:29:32.844Z,32.20
2023-02-17T00:40:32.671Z,30.83
2023-02-17T00:45:55.968Z,27.10
2023-02-17T00:51:31.840Z,29.93
2023-02-17T01:22:48.980Z,34.20
2023-02-17T01:29:11.888Z,33.30
2023-02-17T01:35:09.767Z,30.77
2023-02-17T01:52:22.979Z,32.47
2023-02-17T01:58:17.665Z,35.03
2023-02-17T02:04:05.475Z,32.20
2023-02-17T02:09:45.628Z,33.73
2023-02-17T02:21:14.030Z,36.87
2023-02-17T02:27:02.244Z,41.30
2023-02-17T02:33:05.585Z,44.80
2023-02-17T02:39:05.877Z,40.47
2023-02-17T02:44:35.945Z,44.23
2023-02-17T02:50:19.788Z,49.07
2023-02-17T03:01:51.276Z,42.57
2023-02-17T03:07:33.873Z,37.97
2023-02-17T03:13:29.267Z,40.60
2023-02-17T03:19:26.451Z,40.40
2023-02-17T03:24:42.266Z,32.87
2023-02-17T03:30:29.088Z,27.40
2023-02-17T03:36:16.968Z,20.70
2023-02-17T03:42:03.982Z,15.03
2023-02-17T03:48:02.717Z,12.73
2023-02-17T03:53:55.177Z,13.27
2023-02-17T04:18:46.080Z,15.20
2023-02-17T04:29:49.515Z,14.23
2023-02-17T04:34:52.171Z,15.70
2023-02-17T04:39:54.856Z,14.20
2023-02-17T04:44:58.894Z,14.10
2023-02-17T04:50:01.788Z,15.60
2023-02-17T04:55:05.358Z,13.50
2023-02-17T05:00:11.026Z,13.77
2023-02-17T05:05:15.253Z,14.67
2023-02-17T05:10:18.886Z,16.53
2023-02-17T05:15:22.930Z,12.43
2023-02-17T05:20:25.617Z,13.37
2023-02-17T05:25:28.515Z,15.03
2023-02-17T05:30:32.616Z,16.30
2023-02-17T05:35:35.767Z,14.33
2023-02-17T05:40:38.442Z,13.27
2023-02-17T05:45:42.418Z,15.20
2023-02-17T05:50:45.221Z,13.83
2023-02-17T05:55:48.857Z,11.80
2023-02-17T06:00:53.090Z,12.13
2023-02-17T06:05:55.726Z,14.37
2023-02-17T06:10:58.385Z,9.30
2023-02-17T06:16:02.699Z,11.70
2023-02-17T06:21:05.846Z,10.33
2023-02-17T06:26:08.810Z,10.47
2023-02-17T06:31:13.138Z,9.37
2023-02-17T06:36:16.926Z,11.37
2023-02-17T06:41:19.569Z,10.37
2023-02-17T06:46:23.540Z,8.87
2023-02-17T06:51:26.213Z,9.10
2023-02-17T06:56:28.905Z,10.33
2023-02-17T07:01:33.149Z,10.23
2023-02-17T07:06:36.077Z,8.70
2023-02-17T07:11:38.859Z,12.03
2023-02-17T07:16:42.891Z,8.97
2023-02-17T07:21:46.101Z,10.07
2023-02-17T07:26:49.737Z,8.00
2023-02-17T07:31:54.006Z,8.30
2023-02-17T07:36:56.729Z,7.40
2023-02-17T07:42:00.924Z,9.40
2023-02-17T07:47:05.062Z,8.27
2023-02-17T07:52:08.000Z,8.73
2023-02-17T07:57:10.702Z,9.07
2023-02-17T08:02:14.892Z,10.37
2023-02-17T08:07:17.698Z,10.57
2023-02-17T08:12:39.132Z,8.23
2023-02-17T08:17:44.334Z,11.83
2023-02-17T08:22:47.026Z,8.03
2023-02-17T08:27:50.061Z,8.73
2023-02-17T08:32:54.120Z,11.67
2023-02-17T08:37:56.914Z,9.50
2023-02-17T08:43:00.522Z,12.00
2023-02-17T08:48:06.831Z,9.60
2023-02-17T08:53:09.627Z,8.27
2023-02-17T08:58:12.316Z,10.73
2023-02-17T09:03:16.693Z,9.00
2023-02-17T09:08:19.411Z,8.20
2023-02-17T09:13:22.218Z,9.23
2023-02-17T09:18:26.359Z,8.63
2023-02-17T09:23:29.129Z,10.07
2023-02-17T09:28:32.182Z,6.77
2023-02-17T09:33:36.306Z,5.80
2023-02-17T09:38:40.451Z,7.40
2023-02-17T09:43:43.664Z,4.60
2023-02-17T09:48:50.311Z,6.57
2023-02-17T09:54:00.824Z,6.60
2023-02-17T09:59:09.550Z,4.23
2023-02-17T10:04:18.402Z,5.73
2023-02-17T10:09:28.018Z,4.40
2023-02-17T10:14:36.986Z,4.13
2023-02-17T10:19:48.748Z,5.10
2023-02-17T10:24:51.653Z,3.83
2023-02-17T10:36:31.915Z,3.97
2023-02-17T10:42:01.576Z,6.00
2023-02-17T10:47:21.305Z,4.43
2023-02-17T10:52:53.859Z,4.30
2023-02-17T11:04:50.865Z,2.93
2023-02-17T11:10:14.598Z,4.63
2023-02-17T11:15:45.343Z,3.35
2023-02-17T11:21:02.940Z,4.80
2023-02-17T11:26:27.023Z,4.53
2023-02-17T11:31:47.542Z,3.87
2023-02-17T11:54:56.521Z,3.87
2023-02-17T12:00:29.770Z,3.30
2023-02-17T12:05:54.329Z,3.43
2023-02-17T12:11:33.462Z,2.63
2023-02-17T12:16:58.285Z,3.03
2023-02-17T12:22:25.938Z,3.27
2023-02-17T12:34:16.379Z,2.97
2023-02-17T12:39:41.840Z,2.63
2023-02-17T12:45:09.550Z,1.80
2023-02-17T12:50:32.598Z,3.67
2023-02-17T12:55:58.377Z,3.05
2023-02-17T13:01:41.476Z,3.88
2023-02-17T13:07:22.726Z,2.25
2023-02-17T13:12:55.394Z,3.10
2023-02-17T13:18:15.346Z,4.20
2023-02-17T13:30:37.768Z,1.65
2023-02-17T13:35:55.475Z,4.68
2023-02-17T13:41:33.467Z,2.72
2023-02-17T13:59:47.631Z,1.20
2023-02-17T14:05:39.237Z,1.63
2023-02-17T14:11:31.426Z,2.85
2023-02-17T14:17:10.961Z,1.30
2023-02-17T14:28:39.874Z,4.30
2023-02-17T14:34:07.816Z,3.00
2023-02-17T14:39:31.684Z,2.55
2023-02-17T14:44:57.888Z,1.75
2023-02-17T14:50:14.324Z,1.85
2023-02-17T14:55:47.946Z,1.35
2023-02-17T15:07:13.377Z,1.75
2023-02-17T15:18:40.714Z,2.25
2023-02-17T15:30:18.263Z,2.00
2023-02-17T15:35:49.450Z,3.20
2023-02-17T15:47:13.935Z,1.75
2023-02-17T15:53:13.013Z,1.55
2023-02-17T16:04:44.153Z,1.38
2023-02-17T16:10:03.738Z,1.70
2023-02-17T16:15:15.621Z,2.58
2023-02-17T16:20:22.457Z,1.57
2023-02-17T16:25:31.215Z,1.90
2023-02-17T16:30:35.903Z,5.60
2023-02-17T16:35:43.429Z,2.15
2023-02-17T16:40:57.092Z,3.78
2023-02-17T16:46:06.848Z,2.65
2023-02-17T16:51:13.076Z,4.37
2023-02-17T16:56:26.848Z,1.63
2023-02-17T17:01:40.294Z,2.70
2023-02-17T17:06:58.581Z,2.10
2023-02-17T17:12:20.238Z,5.27
2023-02-17T17:17:45.206Z,2.20
2023-02-17T17:23:01.160Z,1.85
2023-02-17T17:28:21.074Z,2.30
2023-02-17T17:33:31.351Z,3.22
2023-02-17T17:39:15.755Z,2.00
2023-02-17T17:44:51.738Z,1.65
2023-02-17T17:56:25.303Z,3.95
2023-02-17T18:14:01.859Z,3.30
2023-02-17T18:37:40.713Z,2.67
2023-02-17T18:43:25.810Z,5.80
2023-02-17T18:48:34.517Z,5.80
2023-02-17T18:53:39.653Z,3.40
2023-02-17T18:58:45.284Z,5.63
2023-02-17T19:03:49.057Z,2.90
2023-02-17T19:08:53.681Z,2.23
2023-02-17T19:13:57.181Z,1.50
2023-02-17T19:19:00.699Z,2.67
2023-02-17T19:24:25.764Z,2.17
2023-02-17T19:29:29.199Z,3.33
2023-02-17T19:34:33.212Z,2.83
2023-02-17T19:39:43.024Z,2.43
2023-02-17T19:44:46.474Z,2.40
2023-02-17T19:49:53.984Z,3.43
2023-02-17T20:06:21.815Z,4.47
2023-02-17T20:11:46.643Z,4.33
2023-02-17T20:17:09.827Z,3.97
2023-02-17T22:47:45.139Z,4.50
2023-02-17T22:53:04.987Z,4.60
2023-02-17T22:58:29.605Z,8.10
2023-02-17T23:10:04.848Z,6.43
2023-02-17T23:15:45.812Z,7.33
2023-02-17T23:21:15.333Z,7.57
2023-02-17T23:27:02.301Z,6.20
2023-02-17T23:32:17.255Z,4.07
2023-02-17T23:37:43.898Z,6.30
2023-02-17T23:49:38.306Z,8.00
2023-02-17T23:55:03.397Z,10.60
